MDT,Max TemperatureF,Mean TemperatureF,Min TemperatureF,Max Dew PointF,MeanDew PointF,Min DewpointF,Max Humidity, Mean Humidity, Min Humidity, Max Sea Level PressureIn, Mean Sea Level PressureIn, Min Sea Level PressureIn, Max VisibilityMiles, Mean VisibilityMiles, Min VisibilityMiles, Max Wind SpeedMPH, Mean Wind SpeedMPH, Max Gust SpeedMPH,PrecipitationIn, CloudCover, Events, WindDirDegrees
2013-9-1,76,56,35,45,37,31,92,60,27,30.21,30.14,30.08,,,,7,2,10,0.00,,,30
2013-9-2,60,50,40,54,46,33,100,83,65,30.19,30.12,30.08,,,,6,0,14,0.33,,,300
2013-9-3,70,57,44,53,50,44,100,77,53,30.25,30.18,30.12,,,,13,1,28,0.08,,,25
2013-9-4,73,61,48,53,50,47,100,72,44,30.28,30.22,30.17,,,,7,1,14,0.00,,,310
2013-9-5,75,59,43,52,47,42,100,68,35,30.23,30.18,30.10,,,,9,1,20,0.00,,,120
2013-9-6,77,61,44,52,47,42,96,65,33,30.21,30.16,30.12,,,,16,2,26,0.03,,,290
2013-9-7,71,57,42,51,44,35,100,68,36,30.24,30.17,30.10,,,,16,2,22,0.01,,,310
2013-9-8,66,55,43,47,43,37,100,69,37,30.15,30.05,29.95,,,,15,2,25,0.13,,,274
2013-9-9,61,49,37,45,40,33,100,69,37,30.14,30.04,29.96,,,,10,3,15,0.19,,,295
2013-9-10,67,50,33,43,38,32,100,65,29,30.20,30.16,30.12,,,,7,1,12,0.00,,,107
2013-9-11,71,53,35,45,37,34,92,60,27,30.34,30.25,30.20,,,,8,2,16,0.00,,,100
2013-9-12,56,48,39,50,43,36,100,86,71,30.32,30.26,30.20,,,,6,0,10,0.37,,,300
2013-9-13,63,51,38,49,43,37,100,73,46,30.19,30.05,29.92,,,,9,1,16,0.00,,,280
2013-9-14,53,49,45,48,46,44,100,89,77,30.12,30.02,29.93,,,,9,1,15,0.14,,,-1
2013-9-15,60,52,43,51,46,43,100,80,60,30.16,30.13,30.10,,,,6,1,12,0.04,,,310
2013-9-16,69,54,39,49,45,39,100,71,42,30.12,30.04,29.95,,,,9,1,18,0.00,,,-1
2013-9-17,59,51,42,48,44,41,100,79,57,29.99,29.87,29.71,,,,5,1,,0.45,,,25
2013-9-18,43,38,32,41,36,32,100,91,82,30.15,29.94,29.77,,,,15,3,25,0.53,,,270
2013-9-19,47,38,29,38,32,28,100,81,62,30.30,30.25,30.15,,,,6,1,10,0.00,,,298
2013-9-20,62,44,26,38,30,21,100,61,22,30.28,30.15,30.02,,,,7,2,13,0.00,,,303
2013-9-21,65,48,30,40,32,27,100,63,25,30.01,29.87,29.69,,,,10,2,21,0.00,,,301
2013-9-22,59,49,38,39,34,23,89,58,27,29.74,29.67,29.59,,,,14,4,22,0.00,,,272
2013-9-23,51,41,30,34,31,27,92,66,39,30.10,29.95,29.75,,,,13,4,24,0.00,,,254
2013-9-24,58,43,28,38,31,26,100,65,30,30.11,29.96,29.76,,,,18,3,35,0.02,,,284
2013-9-25,42,36,29,37,33,27,100,91,82,29.78,29.70,29.62,,,,9,3,17,0.39,,,286
2013-9-26,37,31,25,30,27,24,92,78,64,29.92,29.86,29.78,,,,7,2,15,0.12,,,302
2013-9-27,35,31,27,26,25,23,92,79,66,30.14,30.00,29.88,,,,10,3,20,0.07,,,283
2013-9-28,38,34,30,32,29,26,100,88,76,30.19,30.15,30.08,,,,13,4,23,0.00,,,250
2013-9-29,42,36,30,37,33,29,100,80,60,30.11,29.96,29.88,,,,14,5,28,0.26,,,259
2013-9-30,46,41,35,39,37,32,92,84,76,29.99,29.83,29.74,,,,16,7,30,0.69,,,269